• Join FlightAware (Why Join?)
  • Login
  • US Flag 
12:23PM EDT


 

Airport Tracker/Info


-or-


 

Live Flight TrackerFlight Track Log ✈ RPA3228 ✈ 17-May-2013 ✈ KDSM - KDCA

Flight Track Log - Related Links

Times and Time Zones

All times are in EDT time to prevent confusion due to time zone crossing. See the RPA3228 flight status page for this flight to view local times or setup timezone preferences in your user account.

Time Position Orientation Groundspeed Altitude Reporting Facility
EDT Latitude Longitude Course Direction KTS MPH feet Rate Location/Type
07:17AM 41.5250 -93.6764 86° East 165 190 2,000  Level Minneapolis Center
07:18AM 41.5033 -93.7008 220° Southwest 171 197 2,900 1,500 Climbing Minneapolis Center
07:19AM 41.4692 -93.6706 146° Southeast 223 257 4,100 1,620 Climbing Minneapolis Center
07:19AM 41.4769 -93.6336 74° East 246 283 4,600 2,460 Climbing Minneapolis Center
07:20AM 41.4428 -93.3219 82° East  Level FlightAware Approximate
07:20AM 41.4733 -93.5728 95° East 269 310 6,600  Level Minneapolis Center
07:21AM 41.4501 -93.1720 90° East  Level FlightAware Approximate
07:21AM 41.4764 -93.4700 88° East 278 320 9,500  Level Minneapolis Center
07:22AM 41.4500 -93.0216 90° East  Level FlightAware Approximate
07:22AM 41.4800 -93.3594 87° East 296 341 11,300  Level Minneapolis Center
07:23AM 41.4570 -92.8727 86° East  Level FlightAware Approximate
07:23AM 41.4836 -93.2347 88° East 333 383 13,300  Level Minneapolis Center
07:24AM 41.4875 -93.0947 88° East 350 403 15,800 2,160 Climbing Minneapolis Center
07:25AM 41.4908 -92.9633 88° East 357 411 17,700 1,800 Climbing Minneapolis Center
07:26AM 41.4939 -92.8356 88° East 363 418 19,500 1,680 Climbing Minneapolis Center
07:27AM 41.4978 -92.6958 88° East 372 428 21,100 1,560 Climbing Minneapolis Center
07:28AM 41.5000 -92.5856 88° East 389 448 22,200 1,500 Climbing Chicago Center
07:29AM 41.5042 -92.4414 88° East 394 453 23,800 1,500 Climbing Chicago Center
07:30AM 41.5069 -92.2961 88° East 397 457 25,300 1,260 Climbing Chicago Center
07:31AM 41.5097 -92.1453 89° East 409 471 26,400 1,020 Climbing Chicago Center
07:32AM 41.5131 -91.9919 88° East 417 480 27,500 1,080 Climbing Chicago Center
07:33AM 41.5161 -91.8336 88° East 432 497 28,700 1,260 Climbing Chicago Center
07:34AM 41.5189 -91.6394 89° East 443 510 30,100 1,200 Climbing Chicago Center
07:35AM 41.5217 -91.4750 89° East 447 514 31,200 1,140 Climbing Chicago Center
07:36AM 41.5186 -91.3092 91° East 450 518 32,500 1,200 Climbing Chicago Center
07:37AM 41.4986 -91.1472 99° East 447 514 33,800 1,080 Climbing Chicago Center
07:38AM 41.4797 -90.9853 99° East 443 510 34,800 540 Climbing Chicago Center
07:39AM 41.4603 -90.8219 99° East 446 513 35,000 60 Climbing Chicago Center
07:40AM 41.4397 -90.6581 99° East 449 517 35,000  Level Chicago Center
07:41AM 41.4189 -90.4964 100° East 444 511 35,000  Level Chicago Center
07:42AM 41.3961 -90.2997 99° East 446 513 35,000  Level Chicago Center
07:43AM 41.3739 -90.1361 100° East 447 514 35,000  Level Chicago Center
07:44AM 41.3539 -89.9719 99° East 447 514 35,000  Level Chicago Center
07:45AM 41.3336 -89.8081 99° East 447 514 35,000  Level Chicago Center
07:46AM 41.3125 -89.6422 100° East 451 519 35,000  Level Chicago Center
07:47AM 41.2906 -89.4775 100° East 451 519 35,000  Level Chicago Center
07:48AM 41.2686 -89.3158 100° East 445 512 35,000  Level Chicago Center
07:49AM 41.2453 -89.1592 101° East 440 506 35,000  Level Chicago Center
07:50AM 41.2242 -88.9967 100° East 447 514 35,000  Level Chicago Center
07:51AM 41.1975 -88.8022 100° East 450 518 35,000  Level Chicago Center
07:52AM 41.1742 -88.6414 101° East 450 518 35,000  Level Chicago Center
07:53AM 41.1525 -88.4819 100° East 444 511 35,000  Level Chicago Center
07:54AM 41.1308 -88.3231 100° East 443 510 35,000  Level Chicago Center
07:55AM 41.1072 -88.1650 101° East 444 511 35,000  Level Chicago Center
07:56AM 41.0797 -87.9758 101° East 443 510 35,000  Level Chicago Center
07:57AM 41.0567 -87.8156 101° East 448 516 35,000  Level Chicago Center
07:58AM 41.0331 -87.6583 101° East 444 511 35,000  Level Chicago Center
07:59AM 41.0100 -87.4986 101° East 446 513 35,000  Level Chicago Center
08:00AM 40.9842 -87.3417 102° East 442 509 35,000  Level Chicago Center
08:01AM 40.9597 -87.1814 101° East 446 513 35,000  Level Chicago Center
08:02AM 40.9300 -86.9900 102° East 447 514 35,000  Level Chicago Center
08:03AM 40.9061 -86.8297 101° East 447 514 35,000  Level Chicago Center
08:04AM 40.8831 -86.6842 102° East 449 517 35,000  Level Chicago Center
08:05AM 40.8564 -86.5228 102° East 452 520 35,000  Level Chicago Center
08:06AM 40.8258 -86.3328 102° East 446 513 35,000  Level Chicago Center
08:07AM 40.7997 -86.1725 102° East 449 517 35,000  Level Chicago Center
08:09AM 40.7722 -86.0119 103° East 453 521 35,000  Level Chicago Center
08:10AM 40.7464 -85.8542 102° East 447 514 35,000  Level Chicago Center
08:11AM 40.7192 -85.6953 103° East 447 514 35,000  Level Chicago Center
08:12AM 40.6925 -85.5367 102° East 447 514 35,000  Level Chicago Center
08:13AM 40.6636 -85.3639 102° East 448 516 35,000  Level Chicago Center
08:14AM 40.6361 -85.1981 102° East 459 528 35,000  Level Chicago Center
08:14AM 40.6189 -85.1047 104° East 446 513 35,000  Level Indianapolis Center
08:15AM 40.5914 -84.9442 103° East 451 519 35,000  Level Indianapolis Center
08:16AM 40.5606 -84.7714 103° East 450 518 35,000  Level Indianapolis Center
08:17AM 40.5319 -84.6083 103° East 452 520 35,000  Level Indianapolis Center
08:18AM 40.5036 -84.4478 103° East 449 517 35,000  Level Indianapolis Center
08:19AM 40.4731 -84.2850 104° East 455 524 35,000  Level Indianapolis Center
08:20AM 40.4447 -84.1225 103° East 452 520 35,000  Level Indianapolis Center
08:21AM 40.4142 -83.9606 104° East 452 520 35,000  Level Indianapolis Center
08:22AM 40.3786 -83.7711 104° East 454 522 35,000  Level Indianapolis Center
08:23AM 40.3483 -83.6075 104° East 454 522 35,000  Level Indianapolis Center
08:24AM 40.3169 -83.4453 104° East 454 522 35,000  Level Indianapolis Center
08:26AM 40.2858 -83.2814 104° East 455 524 35,000  Level Indianapolis Center
08:27AM 40.2547 -83.1175 104° East 457 526 35,000  Level Indianapolis Center
08:28AM 40.2228 -82.9553 104° East 455 524 35,000  Level Indianapolis Center
08:29AM 40.1919 -82.7928 104° East 455 524 35,000  Level Indianapolis Center
08:30AM 40.1597 -82.6297 104° East 458 527 35,000  Level Indianapolis Center
08:31AM 40.1178 -82.4714 109° East 455 524 35,000  Level Indianapolis Center
08:32AM 40.0703 -82.3161 112° Southeast 454 522 35,000  Level Indianapolis Center
08:33AM 40.0233 -82.1600 111° Southeast 456 525 35,000  Level Indianapolis Center
08:34AM 39.9769 -82.0033 111° Southeast 459 528 35,000  Level Indianapolis Center
08:35AM 39.9294 -81.8486 112° Southeast 457 526 35,000  Level Indianapolis Center
08:36AM 39.8747 -81.6678 111° Southeast 456 525 35,000  Level Indianapolis Center
08:36AM 39.8481 -81.5861 113° Southeast 453 521 35,000  Level Cleveland Center
08:37AM 39.7972 -81.4314 113° Southeast 453 521 35,000  Level Cleveland Center
08:38AM 39.7525 -81.2636 109° East 453 521 35,000  Level Cleveland Center
08:39AM 39.7053 -81.1092 112° Southeast 453 521 35,000 -60 Level Cleveland Center
08:40AM 39.6581 -80.9525 111° Southeast 453 521 34,900  Descending Cleveland Center
08:41AM 39.6106 -80.8014 112° Southeast 453 521 35,000 60 Climbing Cleveland Center
08:42AM 39.5864 -80.7386 117° Southeast 460 529 35,000  Level Indianapolis Center
08:43AM 39.5383 -80.5839 112° Southeast 460 529 35,000  Level Indianapolis Center
08:43AM 39.5128 -80.4942 110° East 459 528 35,000  Level Cleveland Center
08:44AM 39.4644 -80.3436 113° Southeast 459 528 35,000  Level Cleveland Center
08:45AM 39.4339 -80.2539 114° Southeast 450 518 35,000 -60 Level Washington Center
08:46AM 39.3856 -80.1003 112° Southeast 450 518 34,900 -1,260 Descending Washington Center
08:47AM 39.3389 -79.9472 111° Southeast 450 518 32,500 -1,980 Descending Washington Center
08:48AM 39.2967 -79.7917 109° East 455 524 31,000 -780 Descending Washington Center
08:49AM 39.2794 -79.6244 98° East 465 535 31,000  Level Washington Center
08:50AM 39.2681 -79.4628 95° East 460 529 31,000 -1,020 Level Washington Center
08:51AM 39.2567 -79.2961 95° East 460 529 29,000 -1,980 Descending Washington Center
08:52AM 39.2369 -79.1156 98° East 465 535 27,100 -1,500 Descending Washington Center
08:53AM 39.2228 -78.9594 97° East 454 522 26,000 -1,680 Descending Washington Center
08:54AM 39.2081 -78.8086 97° East 437 503 23,800 -2,340 Descending Washington Center
08:55AM 39.1933 -78.6581 97° East 425 489 21,500 -2,280 Descending Washington Center
08:56AM 39.1800 -78.5183 97° East 413 475 19,400 -1,920 Descending Washington Center
08:57AM 39.1644 -78.3811 98° East 394 453 17,600 -1,620 Descending Washington Center
08:58AM 39.1381 -78.2622 106° East 369 425 16,200 -1,200 Descending Washington Center
08:59AM 39.1094 -78.1436 107° East 354 407 15,300 -960 Descending Washington Center
09:00AM 39.0783 -78.0303 109° East 343 395 14,300 -1,020 Descending Washington Center
09:01AM 39.0514 -77.9197 107° East 337 388 13,300 -1,140 Descending Washington Center
09:02AM 39.0281 -77.8256 108° East 294 338 12,100 -1,200 Descending Washington Center
09:03AM 39.0028 -77.7339 110° East 289 333 11,000 -600 Descending Washington Center
09:04AM 38.9753 -77.6317 109° East 289 333 10,900 -660 Descending Washington Center
09:05AM 38.9667 -77.5833 103° East 283 326 10,100 -1,500 Descending Potomac TRACON
09:06AM 38.9333 -77.5000 117° Southeast 261 300 8,900 -1,260 Descending Potomac TRACON
09:07AM 38.9000 -77.4333 123° Southeast 233 268 7,700 -1,080 Descending Potomac TRACON
09:08AM 38.8667 -77.3667 123° Southeast 221 254 6,800 -900 Descending Potomac TRACON
09:09AM 38.8500 -77.3000 108° East 218 251 6,000 -420 Descending Potomac TRACON
09:10AM 38.8167 -77.2333 123° Southeast 218 251 6,000  Level Potomac TRACON
09:10AM 38.7833 -77.1667 123° Southeast 218 251 6,000  Level Potomac TRACON
09:11AM 38.7500 -77.1167 131° Southeast 223 257 6,000 -300 Level Potomac TRACON
09:12AM 38.7000 -77.1167 180° South 186 214 5,400 -540 Descending Potomac TRACON
09:13AM 38.6333 -77.1000 169° South 189 217 5,000 -240 Descending Potomac TRACON
09:14AM 38.5833 -77.1000 180° South 188 216 5,000  Level Potomac TRACON
09:15AM 38.5333 -77.1000 180° South 187 215 5,000 -480 Level Potomac TRACON
09:16AM 38.4833 -77.1000 180° South 187 215 4,100 -540 Descending Potomac TRACON
09:17AM 38.4667 -77.0500 113° Southeast 191 220 4,000 -60 Descending Potomac TRACON
09:18AM 38.5167 -77.0167 28° Northeast 175 201 4,000  Level Potomac TRACON
09:19AM 38.5500 -77.0167 360° North 175 201 4,000  Level Potomac TRACON